• Join FlightAware (Why Join?)
  • Login
  • US Flag 
03:49PM EDT


 

Airport Tracker/Info


-or-


 

Live Flight TrackerFlight Track Log ✈ SWA1876 ✈ 28-Apr-2013 ✈ KDEN - KTPA

Flight Track Log - Related Links

Times and Time Zones

All times are in EDT time to prevent confusion due to time zone crossing. See the SWA1876 flight status page for this flight to view local times or setup timezone preferences in your user account.

Time Position Orientation Groundspeed Altitude Reporting Facility
EDT Latitude Longitude Course Direction KTS MPH feet Rate Location/Type
07:19PM 39.9167 -104.6667 37° Northeast 192 221 6,600  Level Denver TRACON
07:20PM 39.9667 -104.6167 37° Northeast 242 278 8,700 2,220 Climbing Denver TRACON
07:21PM 40.0167 -104.5333 52° Northeast 278 320 11,300 2,280 Climbing Denver TRACON
07:23PM 39.9047 -104.3350 126° Southeast 363 418 15,900 2,460 Climbing Denver Center
07:24PM 39.8381 -104.2194 127° Southeast 393 452 18,600 2,520 Climbing Denver Center
07:25PM 39.7633 -104.0881 126° Southeast 419 482 21,200 2,400 Climbing Denver Center
07:26PM 39.6881 -103.9650 128° Southeast 435 501 23,600 2,280 Climbing Denver Center
07:27PM 39.6097 -103.8292 127° Southeast 445 512 26,000 2,040 Climbing Denver Center
07:28PM 39.5614 -103.6792 113° Southeast 452 520 27,900 1,680 Climbing Denver Center
07:29PM 39.5200 -103.5189 108° East 461 531 29,500 1,560 Climbing Denver Center
07:30PM 39.4756 -103.3547 109° East 475 547 31,200 1,740 Climbing Denver Center
07:31PM 39.4333 -103.1911 108° East 475 547 33,100 1,560 Climbing Denver Center
07:32PM 39.3903 -103.0308 109° East 469 540 34,800 1,620 Climbing Denver Center
07:33PM 39.3322 -102.8178 109° East 468 539 36,800 1,020 Climbing Denver Center
07:34PM 39.2892 -102.6608 109° East 464 534 37,000 60 Climbing Denver Center
07:35PM 39.2489 -102.5125 109° East 461 531 37,000  Level Denver Center
07:36PM 39.2014 -102.3400 110° East 459 528 37,000  Level Denver Center
07:37PM 39.1603 -102.1908 110° East 461 531 37,000  Level Denver Center
07:38PM 39.1139 -102.0200 109° East 455 524 37,000  Level Denver Center
07:39PM 39.0725 -101.8750 110° East 452 520 37,000  Level Denver Center
07:40PM 39.0306 -101.7303 110° East 452 520 37,000  Level Denver Center
07:41PM 38.9819 -101.5608 110° East 452 520 37,000  Level Denver Center
07:43PM 38.9394 -101.4147 110° East 455 524 37,000  Level Denver Center
07:44PM 38.8903 -101.2450 110° East 456 525 37,000  Level Denver Center
07:45PM 38.8475 -101.1000 111° Southeast 454 522 37,000  Level Denver Center
07:46PM 38.7972 -100.9303 111° Southeast 456 525 37,000  Level Denver Center
07:47PM 38.7464 -100.7581 111° Southeast 459 528 37,000  Level Denver Center
07:48PM 38.6956 -100.5881 111° Southeast 459 528 37,000  Level Denver Center
07:49PM 38.6519 -100.4436 111° Southeast 456 525 37,000  Level Denver Center
07:50PM 38.5933 -100.2478 111° Southeast 460 529 37,000  Level Denver Center
07:51PM 38.5492 -100.1028 111° Southeast 458 527 37,000  Level Denver Center
07:52PM 38.4978 -99.9350 111° Southeast 455 524 37,000  Level Denver Center
07:53PM 38.4531 -99.7906 112° Southeast 456 525 37,000  Level Denver Center
07:54PM 38.3917 -99.5967 112° Southeast 455 524 37,000  Level Kansas City Center
07:56PM 38.3486 -99.4581 112° Southeast 455 524 37,000  Level Kansas City Center
07:57PM 38.2922 -99.2794 112° Southeast 452 520 37,000  Level Kansas City Center
07:58PM 38.2456 -99.1311 112° Southeast 454 522 37,000  Level Kansas City Center
07:59PM 38.1994 -98.9847 112° Southeast 447 514 37,000  Level Kansas City Center
08:00PM 38.1522 -98.8361 112° Southeast 452 520 37,000  Level Kansas City Center
08:01PM 38.1069 -98.6897 111° Southeast 448 516 37,000  Level Kansas City Center
08:02PM 38.0589 -98.5431 113° Southeast 449 517 37,000  Level Kansas City Center
08:03PM 38.0139 -98.3972 111° Southeast 448 516 37,000  Level Kansas City Center
08:04PM 37.9561 -98.2217 113° Southeast 450 518 37,000  Level Kansas City Center
08:05PM 37.9108 -98.0864 113° Southeast 446 513 37,000  Level Kansas City Center
08:06PM 37.8622 -97.9411 113° Southeast 445 512 37,000  Level Kansas City Center
08:07PM 37.8131 -97.7931 113° Southeast 448 516 37,000  Level Kansas City Center
08:08PM 37.7550 -97.6194 113° Southeast 448 516 37,000  Level Kansas City Center
08:09PM 37.6647 -97.5139 137° Southeast 448 516 37,000  Level Kansas City Center
08:10PM 37.5661 -97.4286 146° Southeast 445 512 37,000  Level Kansas City Center
08:11PM 37.4622 -97.3386 145° Southeast 454 522 37,000  Level Kansas City Center
08:12PM 37.3581 -97.2511 146° Southeast 451 519 37,000  Level Kansas City Center
08:13PM 37.2525 -97.1642 147° Southeast 452 520 37,000  Level Kansas City Center
08:14PM 37.1281 -97.0586 146° Southeast 451 519 37,000  Level Kansas City Center
08:15PM 37.0244 -96.9708 146° Southeast 449 517 37,000  Level Kansas City Center
08:16PM 36.9197 -96.8833 146° Southeast 452 520 37,000  Level Kansas City Center
08:17PM 36.8139 -96.7892 145° Southeast 443 510 37,000  Level Kansas City Center
08:18PM 36.7136 -96.7036 146° Southeast 437 503 37,000  Level Kansas City Center
08:19PM 36.6108 -96.6200 147° Southeast 438 504 37,000  Level Kansas City Center
08:20PM 36.5083 -96.5342 146° Southeast 441 507 37,000  Level Kansas City Center
08:21PM 36.4061 -96.4500 146° Southeast 442 509 37,000  Level Kansas City Center
08:22PM 36.2828 -96.3478 146° Southeast 443 510 37,000  Level Kansas City Center
08:23PM 36.1808 -96.2636 146° Southeast 443 510 37,000  Level Kansas City Center
08:24PM 36.0781 -96.1789 146° Southeast 444 511 37,000  Level Kansas City Center
08:25PM 35.9744 -96.0950 147° Southeast 446 513 37,000  Level Kansas City Center
08:26PM 35.8714 -96.0106 146° Southeast 446 513 37,000  Level Kansas City Center
08:28PM 35.7556 -95.8981 142° Southeast 442 509 37,000  Level Kansas City Center
08:29PM 35.6631 -95.7953 138° Southeast 446 513 37,000  Level Kansas City Center
08:29PM 35.6036 -95.7311 139° Southeast 448 516 37,000  Level Fort Worth Center
08:30PM 35.5147 -95.6386 140° Southeast 453 521 37,000  Level Fort Worth Center
08:31PM 35.4214 -95.5386 139° Southeast 453 521 37,000  Level Fort Worth Center
08:32PM 35.3217 -95.4317 139° Southeast 447 514 37,000  Level Fort Worth Center
08:33PM 35.2306 -95.3294 137° Southeast 447 514 37,000  Level Fort Worth Center
08:34PM 35.1369 -95.2303 139° Southeast 442 509 37,000  Level Fort Worth Center
08:34PM 35.1253 -95.2214 148° Southeast 445 512 37,000  Level Memphis Center
08:35PM 35.0456 -95.1361 139° Southeast 442 509 37,000  Level Fort Worth Center
08:36PM 34.9539 -95.0322 137° Southeast 447 514 37,000  Level Fort Worth Center
08:37PM 34.8625 -94.9311 138° Southeast 447 514 37,000  Level Fort Worth Center
08:38PM 34.7667 -94.8353 141° Southeast 447 514 37,000  Level Fort Worth Center
08:39PM 34.6747 -94.7344 138° Southeast 447 514 37,000  Level Fort Worth Center
08:40PM 34.5786 -94.6367 140° Southeast 447 514 37,000  Level Fort Worth Center
08:41PM 34.4889 -94.5389 138° Southeast 447 514 37,000  Level Fort Worth Center
08:42PM 34.3947 -94.4386 139° Southeast 447 514 37,000  Level Fort Worth Center
08:43PM 34.2986 -94.3389 139° Southeast 447 514 37,000  Level Fort Worth Center
08:44PM 34.2042 -94.2394 139° Southeast 447 514 37,000  Level Fort Worth Center
08:45PM 34.1100 -94.1450 140° Southeast 447 514 37,000  Level Fort Worth Center
08:46PM 34.0175 -94.0458 138° Southeast 442 509 37,000  Level Fort Worth Center
08:47PM 33.9211 -93.9469 140° Southeast 448 516 37,000  Level Fort Worth Center
08:48PM 33.8244 -93.8483 140° Southeast 454 522 37,000  Level Fort Worth Center
08:49PM 33.7275 -93.7472 139° Southeast 454 522 37,000  Level Fort Worth Center
08:50PM 33.6306 -93.6439 138° Southeast 459 528 37,000  Level Fort Worth Center
08:51PM 33.5294 -93.5436 140° Southeast 464 534 37,000  Level Fort Worth Center
08:52PM 33.4411 -93.4556 140° Southeast 464 534 37,000  Level Fort Worth Center
08:53PM 33.3439 -93.3553 139° Southeast 464 534 37,000  Level Fort Worth Center
08:54PM 33.2447 -93.2581 141° Southeast 464 534 37,000  Level Fort Worth Center
08:55PM 33.1456 -93.1586 140° Southeast 464 534 37,000  Level Fort Worth Center
08:56PM 33.0525 -93.0639 140° Southeast 458 527 37,000  Level Fort Worth Center
08:57PM 32.9550 -92.9622 139° Southeast 458 527 37,000  Level Fort Worth Center
08:58PM 32.8578 -92.8658 140° Southeast 458 527 37,000  Level Fort Worth Center
08:59PM 32.7603 -92.7694 140° Southeast 458 527 37,000  Level Fort Worth Center
09:00PM 32.6628 -92.6733 140° Southeast 463 533 37,000  Level Fort Worth Center
09:01PM 32.5650 -92.5775 140° Southeast 463 533 37,000 -60 Level Fort Worth Center
09:03PM 32.4164 -92.4353 141° Southeast 456 525 36,900  Descending Houston Center
09:04PM 32.3186 -92.3389 140° Southeast 457 526 37,000  Climbing Houston Center
09:05PM 32.2203 -92.2431 140° Southeast 457 526 36,900 -60 Descending Houston Center
09:06PM 32.1022 -92.1278 140° Southeast 460 529 36,900  Level Houston Center
09:07PM 32.0031 -92.0306 140° Southeast 461 531 36,900  Level Houston Center
09:08PM 31.9111 -91.9406 140° Southeast 464 534 37,000  Climbing Houston Center
09:09PM 31.8114 -91.8458 141° Southeast 460 529 37,000  Level Houston Center
09:10PM 31.7122 -91.7497 140° Southeast 459 528 37,000  Level Houston Center
09:11PM 31.6119 -91.6539 141° Southeast 462 532 37,000  Level Houston Center
09:12PM 31.4919 -91.5381 141° Southeast 463 533 37,000  Level Houston Center
09:13PM 31.3908 -91.4425 141° Southeast 465 535 37,000  Level Houston Center
09:14PM 31.2897 -91.3464 141° Southeast 467 537 37,000 -60 Level Houston Center
09:15PM 31.1975 -91.2589 141° Southeast 461 531 36,900 -60 Descending Houston Center
09:16PM 31.0997 -91.1644 140° Southeast 457 526 36,900  Level Houston Center
09:17PM 31.0003 -91.0725 142° Southeast 456 525 36,900  Level Houston Center
09:18PM 30.9025 -90.9794 141° Southeast 456 525 36,900  Level Houston Center
09:19PM 30.8064 -90.8347 128° Southeast 486 559 37,000  Climbing Houston Center
09:20PM 30.7556 -90.6850 112° Southeast 500 575 37,000 -60 Level Houston Center
09:21PM 30.7053 -90.5344 111° Southeast 501 577 36,900 -60 Descending Houston Center
09:22PM 30.6547 -90.3831 111° Southeast 502 578 36,900  Level Houston Center
09:23PM 30.6025 -90.2325 112° Southeast 503 579 36,900  Level Houston Center
09:24PM 30.5511 -90.0822 112° Southeast 502 578 36,900  Level Houston Center
09:25PM 30.4994 -89.9314 112° Southeast 503 579 37,000  Climbing Houston Center
09:26PM 30.4469 -89.7758 111° Southeast 506 582 37,000  Level Houston Center
09:27PM 30.3911 -89.6214 113° Southeast 503 579 37,000 -60 Level Houston Center
09:28PM 30.3372 -89.4672 112° Southeast 509 586 36,900 -60 Descending Houston Center
09:29PM 30.2828 -89.3167 113° Southeast 508 585 36,900  Level Houston Center
09:30PM 30.2292 -89.1644 112° Southeast 510 587 36,900  Level Houston Center
09:31PM 30.1767 -89.0144 112° Southeast 505 581 36,900  Level Houston Center
09:32PM 30.1233 -88.8644 112° Southeast 505 581 36,900  Level Houston Center
09:33PM 30.0589 -88.6850 112° Southeast 503 579 36,900  Level Houston Center
09:34PM 30.0039 -88.5339 113° Southeast 499 574 37,000  Climbing Houston Center
09:35PM 29.9506 -88.3881 113° Southeast 497 572 37,000  Level Houston Center
09:36PM 29.8972 -88.2417 113° Southeast 496 571 37,000  Level Houston Center
09:38PM 29.8442 -88.0947 113° Southeast 498 573 37,000  Level Houston Center
09:39PM 29.7914 -87.9503 113° Southeast 495 570 37,000  Level Houston Center
09:40PM 29.7381 -87.8061 113° Southeast 493 567 37,000 -60 Level Houston Center
09:41PM 29.6800 -87.6469 113° Southeast 495 570 36,900 -60 Descending Houston Center
09:42PM 29.6269 -87.5019 113° Southeast 494 568 36,900  Level Houston Center
09:43PM 29.5717 -87.3569 114° Southeast 496 571 36,900 60 Level Houston Center
09:43PM 29.5383 -87.2606 112° Southeast 491 565 37,000  Climbing Jacksonville Center
09:44PM 29.4808 -87.1125 114° Southeast 491 565 36,900 -60 Descending Jacksonville Center
09:45PM 29.4233 -86.9575 113° Southeast 502 578 36,900  Level Jacksonville Center
09:46PM 29.3611 -86.8025 115° Southeast 520 598 37,000  Climbing Jacksonville Center
09:47PM 29.3072 -86.6525 112° Southeast 520 598 36,900  Descending Jacksonville Center
09:48PM 29.2489 -86.5028 114° Southeast 520 598 37,000  Climbing Jacksonville Center
09:49PM 29.1906 -86.3508 114° Southeast 520 598 36,900 -60 Descending Jacksonville Center
09:50PM 29.1378 -86.2158 114° Southeast 520 598 36,900  Level Jacksonville Center
09:51PM 29.0811 -86.0619 113° Southeast 520 598 36,900  Level Jacksonville Center
09:52PM 29.0219 -85.9178 115° Southeast 514 592 36,900  Level Jacksonville Center
09:53PM 28.9631 -85.7664 114° Southeast 514 592 36,900  Level Jacksonville Center
09:54PM 28.9036 -85.6175 114° Southeast 509 586 36,900  Level Jacksonville Center
09:55PM 28.8483 -85.4692 113° Southeast 514 592 36,900 -480 Level Jacksonville Center
09:56PM 28.7883 -85.3231 115° Southeast 509 586 36,000 -1,020 Descending Jacksonville Center
09:58PM 28.6817 -85.0464 114° Southeast 502 578 34,100 -1,020 Descending Miami Center
09:59PM 28.6269 -84.9078 114° Southeast 490 564 33,200 -960 Descending Miami Center
10:00PM 28.5683 -84.7644 115° Southeast 490 564 32,300 -1,020 Descending Miami Center
10:01PM 28.5153 -84.6308 114° Southeast 490 564 31,200 -1,200 Descending Miami Center
10:02PM 28.4600 -84.4950 115° Southeast 479 551 30,000 -1,860 Descending Miami Center
10:03PM 28.4067 -84.3617 114° Southeast 474 545 27,600 -1,800 Descending Miami Center
10:04PM 28.3569 -84.2381 115° Southeast 454 522 26,500 -1,080 Descending Miami Center
10:05PM 28.3067 -84.1172 115° Southeast 438 504 25,500 -1,020 Descending Miami Center
10:06PM 28.2567 -83.9939 115° Southeast 433 498 24,500 -1,080 Descending Miami Center
10:07PM 28.2022 -83.8728 117° Southeast 433 498 23,400 -1,620 Descending Miami Center
10:08PM 28.1558 -83.7544 114° Southeast 433 498 21,300 -2,100 Descending Miami Center
10:09PM 28.1114 -83.6389 114° Southeast 416 479 19,200 -2,100 Descending Miami Center
10:10PM 28.0664 -83.5281 115° Southeast 401 461 17,200 -2,100 Descending Miami Center
10:11PM 28.0211 -83.4244 116° Southeast 382 440 15,100 -2,100 Descending Miami Center
10:12PM 27.9781 -83.3211 115° Southeast 371 427 13,000 -2,040 Descending Miami Center
10:13PM 27.9364 -83.2222 115° Southeast 359 413 11,100 -1,500 Descending Miami Center
10:14PM 27.9031 -83.1289 112° Southeast 341 392 10,000 -900 Descending Miami Center
10:15PM 27.8842 -83.0364 103° East 323 372 9,300 -1,080 Descending Miami Center
10:16PM 27.8669 -82.9508 103° East 301 346 7,900 -1,380 Descending Miami Center
10:17PM 27.8622 -82.8639 93° East 282 325 6,600 -1,260 Descending Miami Center
10:18PM 27.8697 -82.7797 84° East 271 312 5,400 -1,320 Descending Miami Center
10:19PM 27.8833 -82.7000 79° East 261 300 4,000 -1,200 Descending Tampa TRACON
10:20PM 27.8833 -82.6167 90° East 230 265 3,100 -840 Descending Tampa TRACON
10:21PM 27.8833 -82.5667 90° East 159 183 2,400 -1,140 Descending Tampa TRACON
10:22PM 27.9167 -82.5500 24° Northeast 148 170 900 -1,140 Descending Tampa TRACON
10:23PM 27.9500 -82.5500 360° North 140 161 200 -720 Descending Tampa TRACON
10:25PM 27.9667 -82.5167 19° North  Level FlightAware Approximate
10:32PM 27.9755 -82.5332 19° North  Level Estimated